sensor_id;sensor_type;location;lat;lon;timestamp;noise_LAeq;noise_LA_min;noise_LA_max;noise_LA01;noise_LA95
66463;Laerm;56827;52.178;4.500;2023-04-01T00:00:06;36.88;33.40;44.22;;
66463;Laerm;56827;52.178;4.500;2023-04-01T00:00:16;36.76;32.43;45.23;;
66463;Laerm;56827;52.178;4.500;2023-04-01T00:00:27;35.37;32.27;42.27;;
66463;Laerm;56827;52.178;4.500;2023-04-01T00:00:37;36.04;32.68;43.05;;
66463;Laerm;56827;52.178;4.500;2023-04-01T00:00:47;36.07;33.27;44.86;;
66463;Laerm;56827;52.178;4.500;2023-04-01T00:00:58;37.14;34.29;45.44;;
66463;Laerm;56827;52.178;4.500;2023-04-01T00:01:11;37.65;34.30;48.74;;
66463;Laerm;56827;52.178;4.500;2023-04-01T00:01:23;36.63;33.48;45.41;;
66463;Laerm;56827;52.178;4.500;2023-04-01T00:01:34;36.72;33.16;48.76;;
66463;Laerm;56827;52.178;4.500;2023-04-01T00:01:44;37.27;33.07;44.24;;
66463;Laerm;56827;52.178;4.500;2023-04-01T00:01:54;45.95;34.36;60.48;;
66463;Laerm;56827;52.178;4.500;2023-04-01T00:02:05;45.05;34.40;58.93;;
66463;Laerm;56827;52.178;4.500;2023-04-01T00:02:15;38.38;34.69;46.87;;
66463;Laerm;56827;52.178;4.500;2023-04-01T00:02:25;37.83;33.62;53.46;;
66463;Laerm;56827;52.178;4.500;2023-04-01T00:02:36;37.43;34.33;46.19;;
66463;Laerm;56827;52.178;4.500;2023-04-01T00:02:46;38.39;33.51;56.77;;
66463;Laerm;56827;52.178;4.500;2023-04-01T00:02:57;39.51;32.11;61.77;;
66463;Laerm;56827;52.178;4.500;2023-04-01T00:03:07;35.49;32.16;46.06;;
66463;Laerm;56827;52.178;4.500;2023-04-01T00:03:18;36.24;32.16;46.22;;
66463;Laerm;56827;52.178;4.500;2023-04-01T00:03:28;36.07;32.65;45.22;;
66463;Laerm;56827;52.178;4.500;2023-04-01T00:03:39;35.99;32.62;45.21;;
66463;Laerm;56827;52.178;4.500;2023-04-01T00:03:49;37.04;32.98;47.02;;
66463;Laerm;56827;52.178;4.500;2023-04-01T00:04:00;37.02;32.67;46.16;;
66463;Laerm;56827;52.178;4.500;2023-04-01T00:04:11;36.16;32.12;48.01;;
66463;Laerm;56827;52.178;4.500;2023-04-01T00:04:22;35.83;32.22;46.55;;
66463;Laerm;56827;52.178;4.500;2023-04-01T00:04:32;36.77;33.16;48.56;;
66463;Laerm;56827;52.178;4.500;2023-04-01T00:04:42;36.52;32.77;48.68;;
66463;Laerm;56827;52.178;4.500;2023-04-01T00:04:53;36.87;33.04;44.60;;
66463;Laerm;56827;52.178;4.500;2023-04-01T00:05:03;36.43;32.68;47.80;;
66463;Laerm;56827;52.178;4.500;2023-04-01T00:05:14;36.06;32.50;45.86;;
66463;Laerm;56827;52.178;4.500;2023-04-01T00:05:24;36.61;32.90;49.37;;
66463;Laerm;56827;52.178;4.500;2023-04-01T00:05:35;37.98;33.43;51.82;;
66463;Laerm;56827;52.178;4.500;2023-04-01T00:05:45;36.40;32.51;48.61;;
66463;Laerm;56827;52.178;4.500;2023-04-01T00:05:57;35.75;32.88;41.03;;
66463;Laerm;56827;52.178;4.500;2023-04-01T00:06:08;35.82;31.41;47.16;;
66463;Laerm;56827;52.178;4.500;2023-04-01T00:06:19;35.41;31.71;47.16;;
66463;Laerm;56827;52.178;4.500;2023-04-01T00:06:29;36.79;32.67;50.63;;
66463;Laerm;56827;52.178;4.500;2023-04-01T00:06:40;35.72;32.12;44.65;;
66463;Laerm;56827;52.178;4.500;2023-04-01T00:06:50;36.22;32.09;45.14;;
66463;Laerm;56827;52.178;4.500;2023-04-01T00:07:01;36.98;32.79;48.20;;
66463;Laerm;56827;52.178;4.500;2023-04-01T00:07:12;44.88;33.67;57.15;;
66463;Laerm;56827;52.178;4.500;2023-04-01T00:07:22;40.33;34.22;52.20;;
66463;Laerm;56827;52.178;4.500;2023-04-01T00:07:32;37.48;32.68;47.29;;
66463;Laerm;56827;52.178;4.500;2023-04-01T00:07:43;36.21;33.27;42.39;;
66463;Laerm;56827;52.178;4.500;2023-04-01T00:07:53;35.63;32.04;44.23;;
66463;Laerm;56827;52.178;4.500;2023-04-01T00:08:03;35.51;31.73;45.47;;
66463;Laerm;56827;52.178;4.500;2023-04-01T00:08:14;35.93;31.90;47.59;;
66463;Laerm;56827;52.178;4.500;2023-04-01T00:08:25;34.89;31.86;42.31;;
66463;Laerm;56827;52.178;4.500;2023-04-01T00:08:36;35.61;31.96;44.22;;
66463;Laerm;56827;52.178;4.500;2023-04-01T00:08:46;35.80;32.03;46.56;;
66463;Laerm;56827;52.178;4.500;2023-04-01T00:08:56;35.82;32.26;46.82;;
66463;Laerm;56827;52.178;4.500;2023-04-01T00:09:06;37.11;31.62;55.94;;
66463;Laerm;56827;52.178;4.500;2023-04-01T00:09:17;34.61;31.62;40.31;;
66463;Laerm;56827;52.178;4.500;2023-04-01T00:09:27;37.31;31.64;54.07;;
66463;Laerm;56827;52.178;4.500;2023-04-01T00:09:37;35.03;32.08;41.47;;
66463;Laerm;56827;52.178;4.500;2023-04-01T00:09:48;36.29;32.53;48.08;;
66463;Laerm;56827;52.178;4.500;2023-04-01T00:09:58;35.83;33.04;43.01;;
66463;Laerm;56827;52.178;4.500;2023-04-01T00:10:09;35.28;31.97;41.74;;
66463;Laerm;56827;52.178;4.500;2023-04-01T00:10:19;36.82;32.69;50.52;;
66463;Laerm;56827;52.178;4.500;2023-04-01T00:10:30;36.37;33.00;42.42;;
66463;Laerm;56827;52.178;4.500;2023-04-01T00:10:40;36.49;32.30;42.40;;
66463;Laerm;56827;52.178;4.500;2023-04-01T00:10:50;35.91;32.59;45.88;;
66463;Laerm;56827;52.178;4.500;2023-04-01T00:11:01;41.64;33.38;49.77;;
66463;Laerm;56827;52.178;4.500;2023-04-01T00:11:11;44.33;38.57;51.31;;
66463;Laerm;56827;52.178;4.500;2023-04-01T00:11:22;40.16;36.16;45.08;;
66463;Laerm;56827;52.178;4.500;2023-04-01T00:11:33;36.17;32.31;41.57;;
66463;Laerm;56827;52.178;4.500;2023-04-01T00:11:43;35.28;32.29;40.03;;
66463;Laerm;56827;52.178;4.500;2023-04-01T00:11:55;35.97;32.76;43.69;;
66463;Laerm;56827;52.178;4.500;2023-04-01T00:12:05;36.58;32.51;46.69;;
66463;Laerm;56827;52.178;4.500;2023-04-01T00:12:15;36.64;33.32;45.71;;
66463;Laerm;56827;52.178;4.500;2023-04-01T00:12:26;37.03;33.31;44.69;;
66463;Laerm;56827;52.178;4.500;2023-04-01T00:12:36;37.57;33.81;43.39;;
66463;Laerm;56827;52.178;4.500;2023-04-01T00:12:47;38.21;34.42;44.68;;
66463;Laerm;56827;52.178;4.500;2023-04-01T00:12:57;40.35;36.67;47.20;;
66463;Laerm;56827;52.178;4.500;2023-04-01T00:13:07;39.16;34.40;45.70;;
66463;Laerm;56827;52.178;4.500;2023-04-01T00:13:18;37.16;33.40;44.60;;
66463;Laerm;56827;52.178;4.500;2023-04-01T00:13:29;37.75;33.48;50.73;;
66463;Laerm;56827;52.178;4.500;2023-04-01T00:13:39;37.70;33.97;47.39;;
66463;Laerm;56827;52.178;4.500;2023-04-01T00:13:50;38.63;33.59;56.76;;
66463;Laerm;56827;52.178;4.500;2023-04-01T00:14:00;35.44;32.73;42.65;;
66463;Laerm;56827;52.178;4.500;2023-04-01T00:14:10;36.55;32.64;48.06;;
66463;Laerm;56827;52.178;4.500;2023-04-01T00:14:20;35.99;32.36;44.22;;
66463;Laerm;56827;52.178;4.500;2023-04-01T00:14:31;37.04;32.92;49.53;;
66463;Laerm;56827;52.178;4.500;2023-04-01T00:14:41;37.80;34.33;46.67;;
66463;Laerm;56827;52.178;4.500;2023-04-01T00:14:51;37.49;33.88;49.14;;
66463;Laerm;56827;52.178;4.500;2023-04-01T00:15:02;38.27;35.94;43.35;;
66463;Laerm;56827;52.178;4.500;2023-04-01T00:15:12;39.07;34.79;53.66;;
66463;Laerm;56827;52.178;4.500;2023-04-01T00:15:23;39.99;36.44;47.30;;
66463;Laerm;56827;52.178;4.500;2023-04-01T00:15:33;39.51;36.54;50.35;;
66463;Laerm;56827;52.178;4.500;2023-04-01T00:15:44;40.44;36.50;50.30;;
66463;Laerm;56827;52.178;4.500;2023-04-01T00:15:55;38.96;35.97;47.22;;
66463;Laerm;56827;52.178;4.500;2023-04-01T00:16:05;39.30;35.99;47.74;;
66463;Laerm;56827;52.178;4.500;2023-04-01T00:16:16;39.21;36.41;47.95;;
66463;Laerm;56827;52.178;4.500;2023-04-01T00:16:26;38.90;35.20;51.65;;
66463;Laerm;56827;52.178;4.500;2023-04-01T00:16:36;38.23;35.70;43.59;;
66463;Laerm;56827;52.178;4.500;2023-04-01T00:16:47;39.17;36.26;48.71;;
66463;Laerm;56827;52.178;4.500;2023-04-01T00:16:57;39.71;37.19;53.99;;
66463;Laerm;56827;52.178;4.500;2023-04-01T00:17:07;41.21;38.16;49.03;;
66463;Laerm;56827;52.178;4.500;2023-04-01T00:17:17;41.02;38.09;54.01;;
66463;Laerm;56827;52.178;4.500;2023-04-01T00:17:28;42.18;39.00;55.04;;
66463;Laerm;56827;52.178;4.500;2023-04-01T00:17:38;41.27;38.96;48.50;;
66463;Laerm;56827;52.178;4.500;2023-04-01T00:17:48;42.42;39.51;51.26;;
66463;Laerm;56827;52.178;4.500;2023-04-01T00:17:59;42.77;39.32;49.27;;
66463;Laerm;56827;52.178;4.500;2023-04-01T00:18:10;42.90;39.28;51.21;;
66463;Laerm;56827;52.178;4.500;2023-04-01T00:18:21;44.35;41.22;54.03;;
66463;Laerm;56827;52.178;4.500;2023-04-01T00:18:32;44.67;42.11;55.18;;
66463;Laerm;56827;52.178;4.500;2023-04-01T00:18:42;43.94;41.29;55.00;;
66463;Laerm;56827;52.178;4.500;2023-04-01T00:18:52;45.23;42.28;50.78;;
66463;Laerm;56827;52.178;4.500;2023-04-01T00:19:03;46.31;42.85;62.85;;
66463;Laerm;56827;52.178;4.500;2023-04-01T00:19:13;46.07;42.27;65.27;;
66463;Laerm;56827;52.178;4.500;2023-04-01T00:19:23;44.59;41.61;60.03;;
66463;Laerm;56827;52.178;4.500;2023-04-01T00:19:33;44.37;40.40;61.46;;
66463;Laerm;56827;52.178;4.500;2023-04-01T00:19:43;43.34;40.74;50.02;;
66463;Laerm;56827;52.178;4.500;2023-04-01T00:19:54;43.44;39.71;51.63;;
66463;Laerm;56827;52.178;4.500;2023-04-01T00:20:05;45.42;42.18;50.88;;
66463;Laerm;56827;52.178;4.500;2023-04-01T00:20:17;46.22;42.80;53.75;;
66463;Laerm;56827;52.178;4.500;2023-04-01T00:20:27;44.82;42.18;55.23;;
66463;Laerm;56827;52.178;4.500;2023-04-01T00:20:38;44.61;40.81;52.64;;
66463;Laerm;56827;52.178;4.500;2023-04-01T00:20:49;46.34;41.30;66.74;;
66463;Laerm;56827;52.178;4.500;2023-04-01T00:21:00;44.35;40.78;54.66;;
66463;Laerm;56827;52.178;4.500;2023-04-01T00:21:10;43.39;39.80;53.24;;
66463;Laerm;56827;52.178;4.500;2023-04-01T00:21:20;46.11;40.25;65.06;;
66463;Laerm;56827;52.178;4.500;2023-04-01T00:21:32;43.44;39.71;52.65;;
66463;Laerm;56827;52.178;4.500;2023-04-01T00:21:42;42.04;38.00;50.64;;
66463;Laerm;56827;52.178;4.500;2023-04-01T00:21:52;41.63;37.59;53.57;;
66463;Laerm;56827;52.178;4.500;2023-04-01T00:22:03;40.93;36.64;54.39;;
66463;Laerm;56827;52.178;4.500;2023-04-01T00:22:13;41.33;36.99;50.40;;
66463;Laerm;56827;52.178;4.500;2023-04-01T00:22:24;45.03;39.41;62.48;;
66463;Laerm;56827;52.178;4.500;2023-04-01T00:22:34;44.37;39.82;56.97;;
66463;Laerm;56827;52.178;4.500;2023-04-01T00:22:45;44.57;40.37;55.62;;
66463;Laerm;56827;52.178;4.500;2023-04-01T00:22:56;41.56;35.68;51.85;;
66463;Laerm;56827;52.178;4.500;2023-04-01T00:23:06;42.46;35.87;54.14;;
66463;Laerm;56827;52.178;4.500;2023-04-01T00:23:16;43.86;35.83;57.65;;
66463;Laerm;56827;52.178;4.500;2023-04-01T00:23:27;41.38;36.12;52.19;;
66463;Laerm;56827;52.178;4.500;2023-04-01T00:23:37;42.44;36.80;53.61;;
66463;Laerm;56827;52.178;4.500;2023-04-01T00:23:48;42.67;37.38;51.28;;
66463;Laerm;56827;52.178;4.500;2023-04-01T00:23:59;42.05;37.77;52.98;;
66463;Laerm;56827;52.178;4.500;2023-04-01T00:24:10;46.79;37.45;66.33;;
66463;Laerm;56827;52.178;4.500;2023-04-01T00:24:20;43.67;37.33;61.43;;
66463;Laerm;56827;52.178;4.500;2023-04-01T00:24:30;40.44;36.02;52.36;;
66463;Laerm;56827;52.178;4.500;2023-04-01T00:24:41;40.02;36.23;48.04;;
66463;Laerm;56827;52.178;4.500;2023-04-01T00:24:51;41.98;36.64;55.94;;
66463;Laerm;56827;52.178;4.500;2023-04-01T00:25:02;41.81;36.11;56.04;;
66463;Laerm;56827;52.178;4.500;2023-04-01T00:25:13;40.92;36.77;56.55;;
66463;Laerm;56827;52.178;4.500;2023-04-01T00:25:23;47.76;37.33;69.00;;
66463;Laerm;56827;52.178;4.500;2023-04-01T00:25:33;42.28;37.96;54.74;;
66463;Laerm;56827;52.178;4.500;2023-04-01T00:25:44;40.79;36.77;57.45;;
66463;Laerm;56827;52.178;4.500;2023-04-01T00:25:55;40.87;37.47;47.51;;
66463;Laerm;56827;52.178;4.500;2023-04-01T00:26:05;41.79;37.43;56.63;;
66463;Laerm;56827;52.178;4.500;2023-04-01T00:26:16;48.66;38.86;69.52;;
66463;Laerm;56827;52.178;4.500;2023-04-01T00:26:29;43.34;38.85;57.13;;
66463;Laerm;56827;52.178;4.500;2023-04-01T00:26:39;42.23;38.71;54.40;;
66463;Laerm;56827;52.178;4.500;2023-04-01T00:26:52;42.13;38.64;52.03;;
66463;Laerm;56827;52.178;4.500;2023-04-01T00:27:02;41.56;38.27;52.50;;
66463;Laerm;56827;52.178;4.500;2023-04-01T00:27:13;41.70;38.04;52.62;;
66463;Laerm;56827;52.178;4.500;2023-04-01T00:27:23;42.43;38.36;52.50;;
66463;Laerm;56827;52.178;4.500;2023-04-01T00:27:33;43.22;38.89;55.84;;
66463;Laerm;56827;52.178;4.500;2023-04-01T00:27:43;44.84;38.62;64.43;;
66463;Laerm;56827;52.178;4.500;2023-04-01T00:27:54;44.96;39.51;63.28;;
66463;Laerm;56827;52.178;4.500;2023-04-01T00:28:04;43.10;39.21;49.36;;
66463;Laerm;56827;52.178;4.500;2023-04-01T00:28:17;46.23;38.86;68.44;;
66463;Laerm;56827;52.178;4.500;2023-04-01T00:28:28;42.81;38.24;58.36;;
66463;Laerm;56827;52.178;4.500;2023-04-01T00:28:38;42.24;38.57;56.05;;
66463;Laerm;56827;52.178;4.500;2023-04-01T00:28:49;42.60;38.14;55.90;;
66463;Laerm;56827;52.178;4.500;2023-04-01T00:28:59;44.10;38.66;58.78;;
66463;Laerm;56827;52.178;4.500;2023-04-01T00:29:10;42.81;38.56;53.32;;
66463;Laerm;56827;52.178;4.500;2023-04-01T00:29:21;42.68;37.21;51.66;;
66463;Laerm;56827;52.178;4.500;2023-04-01T00:29:31;43.07;37.86;57.12;;
66463;Laerm;56827;52.178;4.500;2023-04-01T00:29:43;41.67;37.22;50.37;;
66463;Laerm;56827;52.178;4.500;2023-04-01T00:29:53;42.89;37.42;56.91;;
66463;Laerm;56827;52.178;4.500;2023-04-01T00:30:04;44.31;35.96;56.80;;
66463;Laerm;56827;52.178;4.500;2023-04-01T00:30:14;41.78;36.80;50.17;;
66463;Laerm;56827;52.178;4.500;2023-04-01T00:30:24;44.47;37.21;57.40;;
66463;Laerm;56827;52.178;4.500;2023-04-01T00:30:35;41.40;36.30;55.50;;
66463;Laerm;56827;52.178;4.500;2023-04-01T00:30:46;40.61;35.53;54.29;;
66463;Laerm;56827;52.178;4.500;2023-04-01T00:30:57;42.00;36.46;52.53;;
66463;Laerm;56827;52.178;4.500;2023-04-01T00:31:07;42.79;35.54;52.19;;
66463;Laerm;56827;52.178;4.500;2023-04-01T00:31:18;43.26;37.99;59.75;;
66463;Laerm;56827;52.178;4.500;2023-04-01T00:31:28;42.69;37.14;56.42;;
66463;Laerm;56827;52.178;4.500;2023-04-01T00:31:39;40.56;35.66;49.61;;
66463;Laerm;56827;52.178;4.500;2023-04-01T00:31:50;41.33;34.99;54.24;;
66463;Laerm;56827;52.178;4.500;2023-04-01T00:32:00;48.98;34.31;71.84;;
66463;Laerm;56827;52.178;4.500;2023-04-01T00:32:11;41.13;35.31;51.49;;
66463;Laerm;56827;52.178;4.500;2023-04-01T00:32:21;40.52;35.17;54.78;;
66463;Laerm;56827;52.178;4.500;2023-04-01T00:32:31;41.52;34.20;59.45;;
66463;Laerm;56827;52.178;4.500;2023-04-01T00:32:42;40.14;33.48;49.80;;
66463;Laerm;56827;52.178;4.500;2023-04-01T00:32:52;40.56;34.14;50.71;;
66463;Laerm;56827;52.178;4.500;2023-04-01T00:33:03;41.23;35.19;51.83;;
66463;Laerm;56827;52.178;4.500;2023-04-01T00:33:14;41.58;34.57;52.82;;
66463;Laerm;56827;52.178;4.500;2023-04-01T00:33:25;42.20;34.20;54.18;;
66463;Laerm;56827;52.178;4.500;2023-04-01T00:33:35;39.88;34.42;55.41;;
66463;Laerm;56827;52.178;4.500;2023-04-01T00:33:45;41.97;35.89;50.74;;
66463;Laerm;56827;52.178;4.500;2023-04-01T00:33:56;42.09;34.48;55.01;;
66463;Laerm;56827;52.178;4.500;2023-04-01T00:34:06;43.23;34.57;60.93;;
66463;Laerm;56827;52.178;4.500;2023-04-01T00:34:16;40.88;35.10;50.94;;
66463;Laerm;56827;52.178;4.500;2023-04-01T00:34:27;41.89;34.10;55.77;;
66463;Laerm;56827;52.178;4.500;2023-04-01T00:34:37;40.48;34.94;55.14;;
66463;Laerm;56827;52.178;4.500;2023-04-01T00:34:50;40.23;34.67;52.87;;
66463;Laerm;56827;52.178;4.500;2023-04-01T00:35:00;40.16;34.49;50.52;;
66463;Laerm;56827;52.178;4.500;2023-04-01T00:35:10;40.22;34.75;51.17;;
66463;Laerm;56827;52.178;4.500;2023-04-01T00:35:22;41.26;34.21;54.88;;
66463;Laerm;56827;52.178;4.500;2023-04-01T00:35:32;41.26;34.20;52.51;;
66463;Laerm;56827;52.178;4.500;2023-04-01T00:35:43;41.25;34.84;53.92;;
66463;Laerm;56827;52.178;4.500;2023-04-01T00:35:53;39.50;35.16;49.15;;
66463;Laerm;56827;52.178;4.500;2023-04-01T00:36:10;40.09;35.15;53.80;;
66463;Laerm;56827;52.178;4.500;2023-04-01T00:36:20;40.86;34.60;51.74;;
66463;Laerm;56827;52.178;4.500;2023-04-01T00:36:33;40.57;34.98;50.66;;
66463;Laerm;56827;52.178;4.500;2023-04-01T00:36:44;42.13;34.36;53.19;;
66463;Laerm;56827;52.178;4.500;2023-04-01T00:36:54;43.80;39.44;56.51;;
66463;Laerm;56827;52.178;4.500;2023-04-01T00:37:04;41.49;37.31;49.49;;
66463;Laerm;56827;52.178;4.500;2023-04-01T00:37:14;41.23;35.14;54.74;;
66463;Laerm;56827;52.178;4.500;2023-04-01T00:37:25;39.93;35.37;49.58;;
66463;Laerm;56827;52.178;4.500;2023-04-01T00:37:36;39.96;34.29;52.58;;
66463;Laerm;56827;52.178;4.500;2023-04-01T00:37:46;39.86;34.76;54.85;;
66463;Laerm;56827;52.178;4.500;2023-04-01T00:37:57;43.74;34.58;61.47;;
66463;Laerm;56827;52.178;4.500;2023-04-01T00:38:08;39.54;34.77;51.16;;
66463;Laerm;56827;52.178;4.500;2023-04-01T00:38:18;39.85;33.90;51.29;;
66463;Laerm;56827;52.178;4.500;2023-04-01T00:38:28;37.59;33.35;47.17;;
66463;Laerm;56827;52.178;4.500;2023-04-01T00:38:39;38.22;33.73;49.01;;
66463;Laerm;56827;52.178;4.500;2023-04-01T00:38:50;38.01;33.32;48.53;;
66463;Laerm;56827;52.178;4.500;2023-04-01T00:39:01;37.33;33.57;46.63;;
66463;Laerm;56827;52.178;4.500;2023-04-01T00:39:11;37.54;33.47;47.22;;
66463;Laerm;56827;52.178;4.500;2023-04-01T00:39:22;38.60;34.50;50.94;;
66463;Laerm;56827;52.178;4.500;2023-04-01T00:39:32;39.54;35.17;48.83;;
66463;Laerm;56827;52.178;4.500;2023-04-01T00:39:44;36.94;32.64;44.74;;
66463;Laerm;56827;52.178;4.500;2023-04-01T00:39:54;38.82;32.63;55.11;;
66463;Laerm;56827;52.178;4.500;2023-04-01T00:40:05;38.28;32.97;52.39;;
66463;Laerm;56827;52.178;4.500;2023-04-01T00:40:24;38.12;32.94;53.53;;
66463;Laerm;56827;52.178;4.500;2023-04-01T00:40:41;39.53;33.65;55.15;;
66463;Laerm;56827;52.178;4.500;2023-04-01T00:40:56;38.23;34.35;49.10;;
66463;Laerm;56827;52.178;4.500;2023-04-01T00:41:07;37.47;33.34;45.70;;
66463;Laerm;56827;52.178;4.500;2023-04-01T00:41:18;38.11;33.11;52.34;;
66463;Laerm;56827;52.178;4.500;2023-04-01T00:41:29;38.83;33.29;56.39;;
66463;Laerm;56827;52.178;4.500;2023-04-01T00:41:39;38.57;34.53;49.93;;
66463;Laerm;56827;52.178;4.500;2023-04-01T00:41:50;38.31;34.11;47.59;;
66463;Laerm;56827;52.178;4.500;2023-04-01T00:42:00;40.27;35.24;57.58;;
66463;Laerm;56827;52.178;4.500;2023-04-01T00:42:11;40.14;36.59;49.39;;
66463;Laerm;56827;52.178;4.500;2023-04-01T00:42:22;40.88;36.26;52.69;;
66463;Laerm;56827;52.178;4.500;2023-04-01T00:42:33;42.84;35.93;54.72;;
66463;Laerm;56827;52.178;4.500;2023-04-01T00:42:43;41.99;38.73;51.36;;
66463;Laerm;56827;52.178;4.500;2023-04-01T00:42:53;41.29;36.90;51.82;;
66463;Laerm;56827;52.178;4.500;2023-04-01T00:43:09;39.01;34.86;48.02;;
66463;Laerm;56827;52.178;4.500;2023-04-01T00:43:20;38.11;34.39;47.16;;
66463;Laerm;56827;52.178;4.500;2023-04-01T00:43:31;37.30;34.17;46.81;;
66463;Laerm;56827;52.178;4.500;2023-04-01T00:43:42;37.23;33.86;46.74;;
66463;Laerm;56827;52.178;4.500;2023-04-01T00:43:52;39.01;34.22;47.54;;
66463;Laerm;56827;52.178;4.500;2023-04-01T00:44:24;39.36;34.64;59.06;;
66463;Laerm;56827;52.178;4.500;2023-04-01T00:44:34;38.01;34.20;45.77;;
66463;Laerm;56827;52.178;4.500;2023-04-01T00:44:45;40.64;35.08;51.91;;
66463;Laerm;56827;52.178;4.500;2023-04-01T00:44:55;39.72;35.87;49.11;;
66463;Laerm;56827;52.178;4.500;2023-04-01T00:45:35;39.71;35.51;51.37;;
66463;Laerm;56827;52.178;4.500;2023-04-01T00:45:48;37.92;34.69;45.76;;
66463;Laerm;56827;52.178;4.500;2023-04-01T00:45:58;38.14;34.55;50.09;;
66463;Laerm;56827;52.178;4.500;2023-04-01T00:46:09;38.17;34.64;50.23;;
66463;Laerm;56827;52.178;4.500;2023-04-01T00:46:19;39.37;35.37;47.94;;
66463;Laerm;56827;52.178;4.500;2023-04-01T00:46:29;38.81;34.85;48.78;;
66463;Laerm;56827;52.178;4.500;2023-04-01T00:46:40;39.36;35.85;48.02;;
66463;Laerm;56827;52.178;4.500;2023-04-01T00:46:50;40.79;36.42;58.76;;
66463;Laerm;56827;52.178;4.500;2023-04-01T00:47:02;39.38;34.92;54.17;;
66463;Laerm;56827;52.178;4.500;2023-04-01T00:47:12;43.21;38.21;52.12;;
66463;Laerm;56827;52.178;4.500;2023-04-01T00:47:23;47.10;39.79;57.87;;
66463;Laerm;56827;52.178;4.500;2023-04-01T00:47:34;42.31;39.12;52.89;;
66463;Laerm;56827;52.178;4.500;2023-04-01T00:47:44;41.51;38.28;48.02;;
66463;Laerm;56827;52.178;4.500;2023-04-01T00:47:55;39.43;36.84;48.33;;
66463;Laerm;56827;52.178;4.500;2023-04-01T00:48:23;38.40;33.23;57.01;;
66463;Laerm;56827;52.178;4.500;2023-04-01T00:48:39;36.75;33.46;46.78;;
66463;Laerm;56827;52.178;4.500;2023-04-01T00:48:51;40.02;32.75;58.07;;
66463;Laerm;56827;52.178;4.500;2023-04-01T00:49:02;38.09;33.63;48.60;;
66463;Laerm;56827;52.178;4.500;2023-04-01T00:49:13;39.24;35.15;50.10;;
66463;Laerm;56827;52.178;4.500;2023-04-01T00:49:26;42.19;35.68;53.62;;
66463;Laerm;56827;52.178;4.500;2023-04-01T00:49:40;38.30;34.91;48.58;;
66463;Laerm;56827;52.178;4.500;2023-04-01T00:49:52;37.59;34.30;46.31;;
66463;Laerm;56827;52.178;4.500;2023-04-01T00:50:04;37.16;34.12;46.91;;
66463;Laerm;56827;52.178;4.500;2023-04-01T00:50:15;37.44;33.31;51.05;;
66463;Laerm;56827;52.178;4.500;2023-04-01T00:50:25;39.43;34.20;50.63;;
66463;Laerm;56827;52.178;4.500;2023-04-01T00:50:36;40.89;36.23;50.15;;
66463;Laerm;56827;52.178;4.500;2023-04-01T00:50:50;38.39;34.46;45.53;;
66463;Laerm;56827;52.178;4.500;2023-04-01T00:51:14;42.61;35.91;52.18;;
66463;Laerm;56827;52.178;4.500;2023-04-01T00:51:27;39.37;34.48;56.46;;
66463;Laerm;56827;52.178;4.500;2023-04-01T00:51:39;41.28;34.32;61.44;;
66463;Laerm;56827;52.178;4.500;2023-04-01T00:51:51;40.72;37.21;47.60;;
66463;Laerm;56827;52.178;4.500;2023-04-01T00:52:03;39.61;35.63;49.10;;
66463;Laerm;56827;52.178;4.500;2023-04-01T00:52:15;38.03;34.63;46.64;;
66463;Laerm;56827;52.178;4.500;2023-04-01T00:52:27;37.57;34.38;45.33;;
66463;Laerm;56827;52.178;4.500;2023-04-01T00:52:37;38.85;34.73;46.25;;
66463;Laerm;56827;52.178;4.500;2023-04-01T00:52:48;40.68;36.84;49.28;;
66463;Laerm;56827;52.178;4.500;2023-04-01T00:52:58;44.37;34.47;63.63;;
66463;Laerm;56827;52.178;4.500;2023-04-01T00:53:10;36.86;33.58;45.10;;
66463;Laerm;56827;52.178;4.500;2023-04-01T00:53:20;38.84;33.73;50.82;;
66463;Laerm;56827;52.178;4.500;2023-04-01T00:53:31;41.23;35.51;48.98;;
66463;Laerm;56827;52.178;4.500;2023-04-01T00:53:43;42.45;37.20;54.30;;
66463;Laerm;56827;52.178;4.500;2023-04-01T00:53:56;38.78;34.61;53.85;;
66463;Laerm;56827;52.178;4.500;2023-04-01T00:54:07;38.34;33.02;54.52;;
66463;Laerm;56827;52.178;4.500;2023-04-01T00:54:18;40.97;35.97;47.04;;
66463;Laerm;56827;52.178;4.500;2023-04-01T00:54:30;38.24;35.25;48.14;;
66463;Laerm;56827;52.178;4.500;2023-04-01T00:54:41;38.32;34.84;51.41;;
66463;Laerm;56827;52.178;4.500;2023-04-01T00:54:54;37.01;33.30;43.98;;
66463;Laerm;56827;52.178;4.500;2023-04-01T00:55:07;38.91;35.51;47.25;;
66463;Laerm;56827;52.178;4.500;2023-04-01T00:55:19;37.11;33.09;47.35;;
66463;Laerm;56827;52.178;4.500;2023-04-01T00:55:32;36.51;32.50;45.31;;
66463;Laerm;56827;52.178;4.500;2023-04-01T00:55:46;37.65;33.50;48.53;;
66463;Laerm;56827;52.178;4.500;2023-04-01T00:56:12;41.39;38.04;48.65;;
66463;Laerm;56827;52.178;4.500;2023-04-01T00:56:45;40.24;34.80;51.25;;
66463;Laerm;56827;52.178;4.500;2023-04-01T00:57:28;38.48;33.41;53.62;;
66463;Laerm;56827;52.178;4.500;2023-04-01T00:57:40;37.59;33.46;45.44;;
66463;Laerm;56827;52.178;4.500;2023-04-01T00:57:52;38.48;34.77;44.42;;
66463;Laerm;56827;52.178;4.500;2023-04-01T00:58:03;39.47;34.10;51.98;;
66463;Laerm;56827;52.178;4.500;2023-04-01T00:58:15;44.29;34.25;53.38;;
66463;Laerm;56827;52.178;4.500;2023-04-01T00:58:27;46.24;35.02;57.71;;
66463;Laerm;56827;52.178;4.500;2023-04-01T00:58:40;43.51;33.95;54.27;;
66463;Laerm;56827;52.178;4.500;2023-04-01T00:58:51;39.32;34.35;46.51;;
66463;Laerm;56827;52.178;4.500;2023-04-01T00:59:06;41.23;36.77;51.39;;
66463;Laerm;56827;52.178;4.500;2023-04-01T00:59:23;39.35;35.91;50.66;;
66463;Laerm;56827;52.178;4.500;2023-04-01T00:59:35;40.16;36.52;49.46;;
66463;Laerm;56827;52.178;4.500;2023-04-01T00:59:48;39.70;36.46;49.66;;
66463;Laerm;56827;52.178;4.500;2023-04-01T00:59:59;37.81;33.27;52.11;;
66463;Laerm;56827;52.178;4.500;2023-04-01T01:00:10;37.00;32.72;49.25;;
66463;Laerm;56827;52.178;4.500;2023-04-01T01:00:21;36.90;32.63;50.24;;
66463;Laerm;56827;52.178;4.500;2023-04-01T01:00:31;39.38;34.74;47.02;;
66463;Laerm;56827;52.178;4.500;2023-04-01T01:00:42;40.08;37.36;45.98;;
66463;Laerm;56827;52.178;4.500;2023-04-01T01:00:53;40.03;34.89;56.06;;
66463;Laerm;56827;52.178;4.500;2023-04-01T01:01:04;38.04;34.14;48.40;;
66463;Laerm;56827;52.178;4.500;2023-04-01T01:01:16;38.57;34.44;46.79;;
66463;Laerm;56827;52.178;4.500;2023-04-01T01:01:26;38.45;35.00;48.63;;
66463;Laerm;56827;52.178;4.500;2023-04-01T01:01:37;37.19;32.88;47.21;;
66463;Laerm;56827;52.178;4.500;2023-04-01T01:01:48;35.62;32.16;44.16;;
66463;Laerm;56827;52.178;4.500;2023-04-01T01:01:58;36.52;33.06;44.24;;
66463;Laerm;56827;52.178;4.500;2023-04-01T01:02:10;36.59;32.80;44.89;;
66463;Laerm;56827;52.178;4.500;2023-04-01T01:02:21;39.12;33.32;59.56;;
66463;Laerm;56827;52.178;4.500;2023-04-01T01:02:31;36.42;33.51;45.40;;
66463;Laerm;56827;52.178;4.500;2023-04-01T01:02:43;36.45;32.60;44.04;;
66463;Laerm;56827;52.178;4.500;2023-04-01T01:02:54;36.85;33.10;47.31;;
66463;Laerm;56827;52.178;4.500;2023-04-01T01:03:04;37.33;33.24;47.61;;
66463;Laerm;56827;52.178;4.500;2023-04-01T01:03:14;37.17;32.85;48.46;;
66463;Laerm;56827;52.178;4.500;2023-04-01T01:03:25;36.38;32.52;48.08;;
66463;Laerm;56827;52.178;4.500;2023-04-01T01:03:35;36.83;33.05;48.53;;